Seabourn Odyssey — C6XC6 — position and weather

sailwx.info

Track history (hours):
 
Tides and Currents Weather Stations Pressure Air Temp Water Temp Dewpoint Dewpoint Depression Visibility Wind Speed Wind Dir Waves Ship Positions

Seabourn Odyssey

Last reported at 2018-Dec-13 10:25 UTC. Time now 2018-Dec-13 12:49 UTC.
Position N 14°02' W 061°01'.

Length 198 m; draft 6.7 m.

Type: Ship. MMSI: 309416000.

Date/timePositionNaut miles runAvg speedWind from/ knotsBaromVisibWave heightAir tempDewpointWater temp
2018-Dec-13 10:25N 14°02' W 061°01'3 6.4
2018-Dec-13 09:56N 14°03' W 061°04'8 6.1
2018-Dec-13 08:34N 14°09' W 061°10'1 6.7
2018-Dec-13 08:27N 14°09' W 061°11'4 6.3
2018-Dec-13 07:51N 14°12' W 061°13'235 4.5
2018-Dec-11 04:03N 17°47' W 062°54'112.5
2018-Dec-11 03:57N 17°48' W 062°56'511.2
2018-Dec-11 03:29N 17°50' W 063°00'3 5.7
2018-Dec-11 02:59N 17°52' W 063°03'3 5.6
2018-Dec-11 02:29N 17°54' W 063°05'4 5.8
2018-Dec-11 01:42N 17°56' W 063°09'1 5.8
2018-Dec-11 01:29N 17°57' W 063°10'4 6.0
2018-Dec-11 00:47N 17°59' W 063°14'2 5.9
2018-Dec-11 00:28N 18°00' W 063°15'3 6.2
2018-Dec-10 23:58N 18°03' W 063°16'3 6.4
2018-Dec-10 23:30N 18°06' W 063°16'4 6.3
2018-Dec-10 22:55N 18°10' W 063°15'3 6.7
2018-Dec-10 22:28N 18°12' W 063°12'5 8.4
2018-Dec-10 21:53N 18°14' W 063°08'0 0.0
2018-Dec-10 10:01N 18°14' W 063°08'1 5.3
2018-Dec-10 09:52N 18°14' W 063°08'2 5.0
2018-Dec-10 09:30N 18°13' W 063°10'2 4.4
2018-Dec-10 08:58N 18°12' W 063°12'3 5.2
2018-Dec-10 08:27N 18°10' W 063°15'3 5.2
2018-Dec-10 07:53N 18°09' W 063°17'2 5.3
2018-Dec-10 07:29N 18°07' W 063°19'3 5.3
2018-Dec-10 06:59N 18°05' W 063°21'3 5.7
2018-Dec-10 06:27N 18°03' W 063°24'5 8.8
2018-Dec-10 05:54N 17°59' W 063°23'610.9
2018-Dec-10 05:21N 17°54' W 063°19'5 9.5
2018-Dec-10 04:49N 17°50' W 063°15'411.5
2018-Dec-10 04:30N 17°48' W 063°13'612.2
2018-Dec-10 03:59N 17°43' W 063°08'9 8.8
2018-Dec-10 02:59N 17°35' W 063°05'18 6.5
2018-Dec-10 00:16N 17°19' W 062°58'12 6.6
2018-Dec-09 22:31N 17°15' W 062°46'0 6.2
2018-Dec-09 22:30N 17°15' W 062°46'1 0.0
2018-Dec-09 09:46N 17°15' W 062°45'2 6.1
2018-Dec-09 09:28N 17°15' W 062°47'31 7.2
2018-Dec-09 05:13N 17°44' W 062°59'412.4
2018-Dec-09 04:54N 17°48' W 063°00'512.3
2018-Dec-09 04:30N 17°52' W 063°02'712.3
2018-Dec-09 03:58N 17°58' W 063°05'3 6.1
2018-Dec-09 03:31N 18°01' W 063°03'0 0.3
2018-Dec-09 02:52N 18°01' W 063°03'0 0.0
2018-Dec-09 02:19N 18°01' W 063°03'0 0.0
2018-Dec-09 01:37N 18°01' W 063°03'0 0.0
2018-Dec-09 01:04N 18°01' W 063°03'0 0.0
2018-Dec-09 00:55N 18°01' W 063°03'0 0.0
2018-Dec-09 00:25N 18°01' W 063°03'0 0.0
2018-Dec-08 23:52N 18°01' W 063°03'0 0.0
2018-Dec-08 23:26N 18°01' W 063°03'0 0.0
2018-Dec-08 22:52N 18°01' W 063°03'0 0.0
2018-Dec-08 21:28N 18°01' W 063°03'0 0.0
2018-Dec-08 20:28N 18°01' W 063°03'0 0.0
2018-Dec-08 19:59N 18°01' W 063°03'0 0.0
2018-Dec-08 18:55N 18°01' W 063°03'0 0.0
2018-Dec-08 18:28N 18°01' W 063°03'0 0.0
2018-Dec-08 15:50N 18°01' W 063°03'0 0.0
2018-Dec-08 15:28N 18°01' W 063°03'0 0.0
2018-Dec-08 13:52N 18°01' W 063°03'77165.3
2018-Dec-08 13:24N 18°31' W 064°17'7798.3
2018-Dec-08 12:37N 18°01' W 063°03'0 0.0
2018-Dec-08 12:07N 18°01' W 063°03'0 0.0
2018-Dec-08 11:49N 18°01' W 063°03'0 0.0
2018-Dec-08 10:29N 18°01' W 063°03'2 3.6
2018-Dec-08 09:52N 17°60' W 063°05'6 6.5
2018-Dec-08 08:55N 18°02' W 063°11'7 6.6
2018-Dec-08 07:48N 18°05' W 063°18'2 6.4
2018-Dec-08 07:25N 18°06' W 063°20'9 6.6
2018-Dec-08 06:02N 18°10' W 063°29'69 8.9
2018-Dec-07 22:17N 18°29' W 064°39'2 7.8
2018-Dec-07 22:00N 18°27' W 064°41'4 7.4
2018-Dec-07 21:30N 18°26' W 064°44'1 1.7
2018-Dec-07 20:56N 18°26' W 064°45'0 0.0
2018-Dec-07 20:26N 18°26' W 064°45'0 0.0
2018-Dec-07 19:50N 18°26' W 064°45'0 0.1
2018-Dec-07 19:20N 18°26' W 064°45'0 0.0
2018-Dec-07 18:56N 18°26' W 064°45'0 0.0
2018-Dec-07 18:20N 18°26' W 064°45'0 0.0
2018-Dec-07 17:56N 18°26' W 064°45'0 0.0
2018-Dec-07 17:26N 18°26' W 064°45'0 0.0
2018-Dec-07 16:56N 18°26' W 064°45'0 0.0
2018-Dec-07 16:20N 18°26' W 064°45'0 0.0
2018-Dec-07 15:56N 18°26' W 064°45'0 0.0
2018-Dec-07 15:08N 18°26' W 064°45'0 0.1
2018-Dec-07 14:56N 18°26' W 064°45'0 0.1
2018-Dec-07 14:26N 18°26' W 064°45'0 0.1
2018-Dec-07 13:50N 18°26' W 064°45'0 0.1
2018-Dec-07 13:26N 18°26' W 064°45'0 0.0
2018-Dec-07 12:56N 18°26' W 064°45'0 0.0
2018-Dec-07 12:26N 18°26' W 064°45'0 0.0
2018-Dec-07 11:56N 18°26' W 064°45'0 0.1
2018-Dec-07 11:20N 18°26' W 064°45'0 0.1
2018-Dec-07 11:00N 18°26' W 064°45'3 5.9
2018-Dec-07 10:30N 18°26' W 064°42'611.9
2018-Dec-07 10:00N 18°30' W 064°37'612.6
2018-Dec-07 09:30N 18°32' W 064°31'1012.5
2018-Dec-07 08:44N 18°32' W 064°21'613.0
2018-Dec-07 08:16N 18°29' W 064°15'4711.9
2018-Dec-07 04:22N 18°02' W 063°35'1012.0
2018-Dec-07 03:30N 17°56' W 063°26'1412.1
2018-Dec-07 02:21N 17°48' W 063°14'1312.9
2018-Dec-07 01:21N 17°41' W 063°03'512.2
2018-Dec-07 00:58N 17°38' W 062°59'2611.4
2018-Dec-06 22:44N 17°16' W 062°47'26 1.4
2018-Dec-06 04:57N 17°40' W 062°54'5 7.7
2018-Dec-06 04:18N 17°46' W 062°54'4 8.4
2018-Dec-06 03:52N 17°49' W 062°54'3 9.3
2018-Dec-06 03:29N 17°53' W 062°54'1 0.1
2018-Dec-05 10:31N 17°54' W 062°55'011.2
2018-Dec-05 10:30N 17°54' W 062°55'711.0
2018-Dec-05 09:51N 17°47' W 062°55'411.4
2018-Dec-05 09:30N 17°43' W 062°55'2711.7
2018-Dec-05 07:14N 17°16' W 062°54'  
Track history (hours):
 
Tides and Currents Weather Stations Pressure Air Temp Water Temp Dewpoint Dewpoint Depression Visibility Wind Speed Wind Dir Waves Ship Positions

Seabourn Odyssey

Last reported at 2018-Dec-13 10:25 UTC. Time now 2018-Dec-13 12:49 UTC.
Position N 14°02' W 061°01'.

Length 198 m; draft 6.7 m.

Type: Ship. MMSI: 309416000.

Date/timePositionNaut miles runAvg speedWind from/ knotsBaromVisibWave heightAir tempDewpointWater temp
2018-Dec-13 10:25N 14°02' W 061°01'3 6.4
2018-Dec-13 09:56N 14°03' W 061°04'8 6.1
2018-Dec-13 08:34N 14°09' W 061°10'1 6.7
2018-Dec-13 08:27N 14°09' W 061°11'4 6.3
2018-Dec-13 07:51N 14°12' W 061°13'235 4.5
2018-Dec-11 04:03N 17°47' W 062°54'112.5
2018-Dec-11 03:57N 17°48' W 062°56'511.2
2018-Dec-11 03:29N 17°50' W 063°00'3 5.7
2018-Dec-11 02:59N 17°52' W 063°03'3 5.6
2018-Dec-11 02:29N 17°54' W 063°05'4 5.8
2018-Dec-11 01:42N 17°56' W 063°09'1 5.8
2018-Dec-11 01:29N 17°57' W 063°10'4 6.0
2018-Dec-11 00:47N 17°59' W 063°14'2 5.9
2018-Dec-11 00:28N 18°00' W 063°15'3 6.2
2018-Dec-10 23:58N 18°03' W 063°16'3 6.4
2018-Dec-10 23:30N 18°06' W 063°16'4 6.3
2018-Dec-10 22:55N 18°10' W 063°15'3 6.7
2018-Dec-10 22:28N 18°12' W 063°12'5 8.4
2018-Dec-10 21:53N 18°14' W 063°08'0 0.0
2018-Dec-10 10:01N 18°14' W 063°08'1 5.3
2018-Dec-10 09:52N 18°14' W 063°08'2 5.0
2018-Dec-10 09:30N 18°13' W 063°10'2 4.4
2018-Dec-10 08:58N 18°12' W 063°12'3 5.2
2018-Dec-10 08:27N 18°10' W 063°15'3 5.2
2018-Dec-10 07:53N 18°09' W 063°17'2 5.3
2018-Dec-10 07:29N 18°07' W 063°19'3 5.3
2018-Dec-10 06:59N 18°05' W 063°21'3 5.7
2018-Dec-10 06:27N 18°03' W 063°24'5 8.8
2018-Dec-10 05:54N 17°59' W 063°23'610.9
2018-Dec-10 05:21N 17°54' W 063°19'5 9.5
2018-Dec-10 04:49N 17°50' W 063°15'411.5
2018-Dec-10 04:30N 17°48' W 063°13'612.2
2018-Dec-10 03:59N 17°43' W 063°08'9 8.8
2018-Dec-10 02:59N 17°35' W 063°05'18 6.5
2018-Dec-10 00:16N 17°19' W 062°58'12 6.6
2018-Dec-09 22:31N 17°15' W 062°46'0 6.2
2018-Dec-09 22:30N 17°15' W 062°46'1 0.0
2018-Dec-09 09:46N 17°15' W 062°45'2 6.1
2018-Dec-09 09:28N 17°15' W 062°47'31 7.2
2018-Dec-09 05:13N 17°44' W 062°59'412.4
2018-Dec-09 04:54N 17°48' W 063°00'512.3
2018-Dec-09 04:30N 17°52' W 063°02'712.3
2018-Dec-09 03:58N 17°58' W 063°05'3 6.1
2018-Dec-09 03:31N 18°01' W 063°03'0 0.3
2018-Dec-09 02:52N 18°01' W 063°03'0 0.0
2018-Dec-09 02:19N 18°01' W 063°03'0 0.0
2018-Dec-09 01:37N 18°01' W 063°03'0 0.0
2018-Dec-09 01:04N 18°01' W 063°03'0 0.0
2018-Dec-09 00:55N 18°01' W 063°03'0 0.0
2018-Dec-09 00:25N 18°01' W 063°03'0 0.0
2018-Dec-08 23:52N 18°01' W 063°03'0 0.0
2018-Dec-08 23:26N 18°01' W 063°03'0 0.0
2018-Dec-08 22:52N 18°01' W 063°03'0 0.0
2018-Dec-08 21:28N 18°01' W 063°03'0 0.0
2018-Dec-08 20:28N 18°01' W 063°03'0 0.0
2018-Dec-08 19:59N 18°01' W 063°03'0 0.0
2018-Dec-08 18:55N 18°01' W 063°03'0 0.0
2018-Dec-08 18:28N 18°01' W 063°03'0 0.0
2018-Dec-08 15:50N 18°01' W 063°03'0 0.0
2018-Dec-08 15:28N 18°01' W 063°03'0 0.0
2018-Dec-08 13:52N 18°01' W 063°03'77165.3
2018-Dec-08 13:24N 18°31' W 064°17'7798.3
2018-Dec-08 12:37N 18°01' W 063°03'0 0.0
2018-Dec-08 12:07N 18°01' W 063°03'0 0.0
2018-Dec-08 11:49N 18°01' W 063°03'0 0.0
2018-Dec-08 10:29N 18°01' W 063°03'2 3.6
2018-Dec-08 09:52N 17°60' W 063°05'6 6.5
2018-Dec-08 08:55N 18°02' W 063°11'7 6.6
2018-Dec-08 07:48N 18°05' W 063°18'2 6.4
2018-Dec-08 07:25N 18°06' W 063°20'9 6.6
2018-Dec-08 06:02N 18°10' W 063°29'69 8.9
2018-Dec-07 22:17N 18°29' W 064°39'2 7.8
2018-Dec-07 22:00N 18°27' W 064°41'4 7.4
2018-Dec-07 21:30N 18°26' W 064°44'1 1.7
2018-Dec-07 20:56N 18°26' W 064°45'0 0.0
2018-Dec-07 20:26N 18°26' W 064°45'0 0.0
2018-Dec-07 19:50N 18°26' W 064°45'0 0.1
2018-Dec-07 19:20N 18°26' W 064°45'0 0.0
2018-Dec-07 18:56N 18°26' W 064°45'0 0.0
2018-Dec-07 18:20N 18°26' W 064°45'0 0.0
2018-Dec-07 17:56N 18°26' W 064°45'0 0.0
2018-Dec-07 17:26N 18°26' W 064°45'0 0.0
2018-Dec-07 16:56N 18°26' W 064°45'0 0.0
2018-Dec-07 16:20N 18°26' W 064°45'0 0.0
2018-Dec-07 15:56N 18°26' W 064°45'0 0.0
2018-Dec-07 15:08N 18°26' W 064°45'0 0.1
2018-Dec-07 14:56N 18°26' W 064°45'0 0.1
2018-Dec-07 14:26N 18°26' W 064°45'0 0.1
2018-Dec-07 13:50N 18°26' W 064°45'0 0.1
2018-Dec-07 13:26N 18°26' W 064°45'0 0.0
2018-Dec-07 12:56N 18°26' W 064°45'0 0.0
2018-Dec-07 12:26N 18°26' W 064°45'0 0.0
2018-Dec-07 11:56N 18°26' W 064°45'0 0.1
2018-Dec-07 11:20N 18°26' W 064°45'0 0.1
2018-Dec-07 11:00N 18°26' W 064°45'3 5.9
2018-Dec-07 10:30N 18°26' W 064°42'611.9
2018-Dec-07 10:00N 18°30' W 064°37'612.6
2018-Dec-07 09:30N 18°32' W 064°31'1012.5
2018-Dec-07 08:44N 18°32' W 064°21'613.0
2018-Dec-07 08:16N 18°29' W 064°15'4711.9
2018-Dec-07 04:22N 18°02' W 063°35'1012.0
2018-Dec-07 03:30N 17°56' W 063°26'1412.1
2018-Dec-07 02:21N 17°48' W 063°14'1312.9
2018-Dec-07 01:21N 17°41' W 063°03'512.2
2018-Dec-07 00:58N 17°38' W 062°59'2611.4
2018-Dec-06 22:44N 17°16' W 062°47'26 1.4
2018-Dec-06 04:57N 17°40' W 062°54'5 7.7
2018-Dec-06 04:18N 17°46' W 062°54'4 8.4
2018-Dec-06 03:52N 17°49' W 062°54'3 9.3
2018-Dec-06 03:29N 17°53' W 062°54'1 0.1
2018-Dec-05 10:31N 17°54' W 062°55'011.2
2018-Dec-05 10:30N 17°54' W 062°55'711.0
2018-Dec-05 09:51N 17°47' W 062°55'411.4
2018-Dec-05 09:30N 17°43' W 062°55'2711.7
2018-Dec-05 07:14N 17°16' W 062°54'  

Dump ship's entire track history